Aeroboteco Virtual Airlines! Uma nuvem a frente.



 INFORMAÇÕES METEOROLÓGICAS
METAR FOR SBTA
ADDS - METARS form results

(1846 UTC 19 August 2019)
Data provider http://aviationweather.gov/metar/data/
 
METAR text: SBTA 191800Z 16004KT 120V210 9999 OVC038 21/15 Q1019
Conditions at: SBTA (TAUBATE (BASE) , BR) observed 1800 UTC 19 August 2019
Temperature: 21.0°C (70°F)
Dewpoint: 15.0°C (59°F) [RH = 69%]
Pressure (altimeter): 30.09 inches Hg (1019.0 mb)
Winds: from the SSE (160 degrees) at 5 MPH (4 knots; 2.1 m/s)
Visibility: 6 or more miles (10+ km)
Ceiling: 3800 feet AGL
Clouds: overcast cloud deck at 3800 feet AGL
Weather: no significant weather observed at this time

 MAPA DO AEROPORTO

 INFORMAÇÕES DA PISTA
Pista 8 Tamanho da pista 112 ft Largura da pista 112 ft
Elevação da pista 0 ft Ranhura da pista 0 ft Proa da pista 0
Pista 26 Tamanho da pista 112 ft Largura da pista 112 ft
Elevação da pista 0 ft Ranhura da pista 0 ft Proa da pista 0

 FREQUÊNCIAS DO AEROPORTO
Tipo GND Nome GND Frequência 121.7 MHZ
Tipo TWR Nome TWR Frequência 119.9 MHZ

 AUXÍLIOS DE NAVEGAÇÃO PRÓXIMOS AO AEROPORTO
Tipo NDB Nome Taubate Frequência 430 KHZ